sensor_id;sensor_type;location;lat;lon;timestamp;temperature;humidity
33023;DHT22;19390;51.460;5.710;2022-07-04T00:00:28;11.60;99.90
33023;DHT22;19390;51.460;5.710;2022-07-04T00:02:54;11.60;99.90
33023;DHT22;19390;51.460;5.710;2022-07-04T00:05:19;11.50;99.90
33023;DHT22;19390;51.460;5.710;2022-07-04T00:07:46;11.40;99.90
33023;DHT22;19390;51.460;5.710;2022-07-04T00:10:15;11.40;99.90
33023;DHT22;19390;51.460;5.710;2022-07-04T00:12:42;11.40;99.90
33023;DHT22;19390;51.460;5.710;2022-07-04T00:15:09;11.30;99.90
33023;DHT22;19390;51.460;5.710;2022-07-04T00:17:35;11.30;99.90
33023;DHT22;19390;51.460;5.710;2022-07-04T00:20:01;11.20;99.90
33023;DHT22;19390;51.460;5.710;2022-07-04T00:22:27;11.20;99.90
33023;DHT22;19390;51.460;5.710;2022-07-04T00:24:53;11.10;99.90
33023;DHT22;19390;51.460;5.710;2022-07-04T00:27:19;11.00;99.90
33023;DHT22;19390;51.460;5.710;2022-07-04T00:29:44;10.90;99.90
33023;DHT22;19390;51.460;5.710;2022-07-04T00:32:10;11.00;99.90
33023;DHT22;19390;51.460;5.710;2022-07-04T00:34:36;11.00;99.90
33023;DHT22;19390;51.460;5.710;2022-07-04T00:37:02;10.80;99.90
33023;DHT22;19390;51.460;5.710;2022-07-04T00:39:28;10.70;99.90
33023;DHT22;19390;51.460;5.710;2022-07-04T00:41:54;10.70;99.90
33023;DHT22;19390;51.460;5.710;2022-07-04T00:44:20;10.70;99.90
33023;DHT22;19390;51.460;5.710;2022-07-04T00:46:46;10.60;99.90
33023;DHT22;19390;51.460;5.710;2022-07-04T00:49:14;10.60;99.90
33023;DHT22;19390;51.460;5.710;2022-07-04T00:51:41;10.60;99.90
33023;DHT22;19390;51.460;5.710;2022-07-04T00:54:10;10.60;99.90
33023;DHT22;19390;51.460;5.710;2022-07-04T00:56:37;10.60;99.90
33023;DHT22;19390;51.460;5.710;2022-07-04T00:59:03;10.50;99.90
33023;DHT22;19390;51.460;5.710;2022-07-04T01:01:28;10.40;99.90
33023;DHT22;19390;51.460;5.710;2022-07-04T01:03:55;10.40;99.90
33023;DHT22;19390;51.460;5.710;2022-07-04T01:06:20;10.40;99.90
33023;DHT22;19390;51.460;5.710;2022-07-04T01:08:47;10.40;99.90
33023;DHT22;19390;51.460;5.710;2022-07-04T01:11:13;10.30;99.90
33023;DHT22;19390;51.460;5.710;2022-07-04T01:13:39;10.30;99.90
33023;DHT22;19390;51.460;5.710;2022-07-04T01:16:09;10.20;99.90
33023;DHT22;19390;51.460;5.710;2022-07-04T01:18:36;10.30;99.90
33023;DHT22;19390;51.460;5.710;2022-07-04T01:21:02;10.20;99.90
33023;DHT22;19390;51.460;5.710;2022-07-04T01:23:27;10.10;99.90
33023;DHT22;19390;51.460;5.710;2022-07-04T01:25:53;10.10;99.90
33023;DHT22;19390;51.460;5.710;2022-07-04T01:28:20;10.00;99.90
33023;DHT22;19390;51.460;5.710;2022-07-04T01:30:46;10.10;99.90
33023;DHT22;19390;51.460;5.710;2022-07-04T01:33:12;10.10;99.90
33023;DHT22;19390;51.460;5.710;2022-07-04T01:35:37;10.10;99.90
33023;DHT22;19390;51.460;5.710;2022-07-04T01:38:03;10.00;99.90
33023;DHT22;19390;51.460;5.710;2022-07-04T01:40:29;9.90;99.90
33023;DHT22;19390;51.460;5.710;2022-07-04T01:42:54;9.90;99.90
33023;DHT22;19390;51.460;5.710;2022-07-04T01:45:20;9.90;99.90
33023;DHT22;19390;51.460;5.710;2022-07-04T01:47:45;9.90;99.90
33023;DHT22;19390;51.460;5.710;2022-07-04T01:50:11;9.90;99.90
33023;DHT22;19390;51.460;5.710;2022-07-04T01:52:38;9.70;99.90
33023;DHT22;19390;51.460;5.710;2022-07-04T01:55:04;9.70;99.90
33023;DHT22;19390;51.460;5.710;2022-07-04T01:57:30;9.70;99.90
33023;DHT22;19390;51.460;5.710;2022-07-04T01:59:56;9.70;99.90
33023;DHT22;19390;51.460;5.710;2022-07-04T02:03:00;9.70;99.90
33023;DHT22;19390;51.460;5.710;2022-07-04T02:05:26;9.50;99.90
33023;DHT22;19390;51.460;5.710;2022-07-04T02:07:51;9.60;99.90
33023;DHT22;19390;51.460;5.710;2022-07-04T02:10:17;9.50;99.90
33023;DHT22;19390;51.460;5.710;2022-07-04T02:12:43;9.50;99.90
33023;DHT22;19390;51.460;5.710;2022-07-04T02:15:31;9.50;99.90
33023;DHT22;19390;51.460;5.710;2022-07-04T02:17:57;9.50;99.90
33023;DHT22;19390;51.460;5.710;2022-07-04T02:20:23;9.40;99.90
33023;DHT22;19390;51.460;5.710;2022-07-04T02:22:49;9.40;99.90
33023;DHT22;19390;51.460;5.710;2022-07-04T02:25:15;9.30;99.90
33023;DHT22;19390;51.460;5.710;2022-07-04T02:27:41;9.30;99.90
33023;DHT22;19390;51.460;5.710;2022-07-04T02:30:07;9.30;99.90
33023;DHT22;19390;51.460;5.710;2022-07-04T02:32:33;9.30;99.90
33023;DHT22;19390;51.460;5.710;2022-07-04T02:34:58;9.20;99.90
33023;DHT22;19390;51.460;5.710;2022-07-04T02:37:24;9.30;99.90
33023;DHT22;19390;51.460;5.710;2022-07-04T02:39:49;9.20;99.90
33023;DHT22;19390;51.460;5.710;2022-07-04T02:42:15;9.30;99.90
33023;DHT22;19390;51.460;5.710;2022-07-04T02:44:41;9.30;99.90
33023;DHT22;19390;51.460;5.710;2022-07-04T02:47:07;9.20;99.90
33023;DHT22;19390;51.460;5.710;2022-07-04T02:49:32;9.10;99.90
33023;DHT22;19390;51.460;5.710;2022-07-04T02:51:58;9.10;99.90
33023;DHT22;19390;51.460;5.710;2022-07-04T02:54:24;9.10;99.90
33023;DHT22;19390;51.460;5.710;2022-07-04T02:56:49;9.10;99.90
33023;DHT22;19390;51.460;5.710;2022-07-04T02:59:15;9.10;99.90
33023;DHT22;19390;51.460;5.710;2022-07-04T03:01:40;9.00;99.90
33023;DHT22;19390;51.460;5.710;2022-07-04T03:04:06;9.00;99.90
33023;DHT22;19390;51.460;5.710;2022-07-04T03:06:32;9.00;99.90
33023;DHT22;19390;51.460;5.710;2022-07-04T03:08:57;9.00;99.90
33023;DHT22;19390;51.460;5.710;2022-07-04T03:11:23;9.00;99.90
33023;DHT22;19390;51.460;5.710;2022-07-04T03:13:49;9.00;99.90
33023;DHT22;19390;51.460;5.710;2022-07-04T03:16:14;9.00;99.90
33023;DHT22;19390;51.460;5.710;2022-07-04T03:18:40;8.90;99.90
33023;DHT22;19390;51.460;5.710;2022-07-04T03:21:05;8.90;99.90
33023;DHT22;19390;51.460;5.710;2022-07-04T03:23:32;8.80;99.90
33023;DHT22;19390;51.460;5.710;2022-07-04T03:25:58;8.70;99.90
33023;DHT22;19390;51.460;5.710;2022-07-04T03:28:24;9.00;99.90
33023;DHT22;19390;51.460;5.710;2022-07-04T03:30:49;9.20;99.90
33023;DHT22;19390;51.460;5.710;2022-07-04T03:33:15;9.40;99.90
33023;DHT22;19390;51.460;5.710;2022-07-04T03:35:41;9.40;99.90
33023;DHT22;19390;51.460;5.710;2022-07-04T03:38:06;9.30;99.90
33023;DHT22;19390;51.460;5.710;2022-07-04T03:40:32;9.30;99.90
33023;DHT22;19390;51.460;5.710;2022-07-04T03:42:59;9.30;99.90
33023;DHT22;19390;51.460;5.710;2022-07-04T03:45:25;9.20;99.90
33023;DHT22;19390;51.460;5.710;2022-07-04T03:47:50;9.30;99.90
33023;DHT22;19390;51.460;5.710;2022-07-04T03:50:17;9.50;99.90
33023;DHT22;19390;51.460;5.710;2022-07-04T03:52:43;9.80;99.90
33023;DHT22;19390;51.460;5.710;2022-07-04T03:55:09;10.00;99.90
33023;DHT22;19390;51.460;5.710;2022-07-04T03:57:35;10.10;99.90
33023;DHT22;19390;51.460;5.710;2022-07-04T04:00:01;10.10;99.90
33023;DHT22;19390;51.460;5.710;2022-07-04T04:02:26;10.10;99.90
33023;DHT22;19390;51.460;5.710;2022-07-04T04:04:52;10.00;99.90
33023;DHT22;19390;51.460;5.710;2022-07-04T04:07:36;10.00;99.90
33023;DHT22;19390;51.460;5.710;2022-07-04T04:10:02;10.00;99.90
33023;DHT22;19390;51.460;5.710;2022-07-04T04:12:27;10.10;99.90
33023;DHT22;19390;51.460;5.710;2022-07-04T04:14:53;10.30;99.90
33023;DHT22;19390;51.460;5.710;2022-07-04T04:17:18;10.40;99.90
33023;DHT22;19390;51.460;5.710;2022-07-04T04:19:44;10.50;99.90
33023;DHT22;19390;51.460;5.710;2022-07-04T04:22:10;10.70;99.90
33023;DHT22;19390;51.460;5.710;2022-07-04T04:24:35;10.80;99.90
33023;DHT22;19390;51.460;5.710;2022-07-04T04:27:01;10.90;99.90
33023;DHT22;19390;51.460;5.710;2022-07-04T04:29:26;11.00;99.90
33023;DHT22;19390;51.460;5.710;2022-07-04T04:31:52;11.10;99.90
33023;DHT22;19390;51.460;5.710;2022-07-04T04:34:18;11.00;99.90
33023;DHT22;19390;51.460;5.710;2022-07-04T04:36:43;11.20;99.90
33023;DHT22;19390;51.460;5.710;2022-07-04T04:39:09;11.30;99.90
33023;DHT22;19390;51.460;5.710;2022-07-04T04:41:34;11.50;99.90
33023;DHT22;19390;51.460;5.710;2022-07-04T04:44:00;11.60;99.90
33023;DHT22;19390;51.460;5.710;2022-07-04T04:46:26;11.70;99.90
33023;DHT22;19390;51.460;5.710;2022-07-04T04:48:51;12.00;99.90
33023;DHT22;19390;51.460;5.710;2022-07-04T04:51:17;12.20;99.90
33023;DHT22;19390;51.460;5.710;2022-07-04T04:53:42;12.30;99.90
33023;DHT22;19390;51.460;5.710;2022-07-04T04:56:08;12.30;99.90
33023;DHT22;19390;51.460;5.710;2022-07-04T04:58:34;12.60;99.90
33023;DHT22;19390;51.460;5.710;2022-07-04T05:00:59;13.70;99.90
33023;DHT22;19390;51.460;5.710;2022-07-04T05:03:28;13.30;99.90
33023;DHT22;19390;51.460;5.710;2022-07-04T05:05:53;13.20;99.90
33023;DHT22;19390;51.460;5.710;2022-07-04T05:08:19;13.10;99.90
33023;DHT22;19390;51.460;5.710;2022-07-04T05:10:45;13.10;99.90
33023;DHT22;19390;51.460;5.710;2022-07-04T05:13:10;13.80;99.90
33023;DHT22;19390;51.460;5.710;2022-07-04T05:15:36;16.20;99.90
33023;DHT22;19390;51.460;5.710;2022-07-04T05:18:01;17.40;99.90
33023;DHT22;19390;51.460;5.710;2022-07-04T05:20:27;17.80;99.90
33023;DHT22;19390;51.460;5.710;2022-07-04T05:22:53;18.10;99.90
33023;DHT22;19390;51.460;5.710;2022-07-04T05:25:18;18.60;99.90
33023;DHT22;19390;51.460;5.710;2022-07-04T05:27:44;18.80;99.90
33023;DHT22;19390;51.460;5.710;2022-07-04T05:30:10;18.70;99.90
33023;DHT22;19390;51.460;5.710;2022-07-04T05:32:38;18.20;99.90
33023;DHT22;19390;51.460;5.710;2022-07-04T05:35:06;19.10;99.90
33023;DHT22;19390;51.460;5.710;2022-07-04T05:37:32;18.50;99.90
33023;DHT22;19390;51.460;5.710;2022-07-04T05:39:57;19.20;99.90
33023;DHT22;19390;51.460;5.710;2022-07-04T05:42:23;20.00;99.90
33023;DHT22;19390;51.460;5.710;2022-07-04T05:44:48;20.20;99.90
33023;DHT22;19390;51.460;5.710;2022-07-04T05:47:14;19.80;99.90
33023;DHT22;19390;51.460;5.710;2022-07-04T05:49:40;20.80;99.90
33023;DHT22;19390;51.460;5.710;2022-07-04T05:52:05;20.50;99.90
33023;DHT22;19390;51.460;5.710;2022-07-04T05:54:31;21.30;99.90
33023;DHT22;19390;51.460;5.710;2022-07-04T05:56:57;21.90;99.90
33023;DHT22;19390;51.460;5.710;2022-07-04T05:59:22;21.50;99.90
33023;DHT22;19390;51.460;5.710;2022-07-04T06:01:48;20.80;99.90
33023;DHT22;19390;51.460;5.710;2022-07-04T06:04:14;22.20;99.90
33023;DHT22;19390;51.460;5.710;2022-07-04T06:06:39;22.20;99.90
33023;DHT22;19390;51.460;5.710;2022-07-04T06:09:05;23.90;99.90
33023;DHT22;19390;51.460;5.710;2022-07-04T06:11:31;23.80;99.90
33023;DHT22;19390;51.460;5.710;2022-07-04T06:13:56;23.60;99.90
33023;DHT22;19390;51.460;5.710;2022-07-04T06:16:22;24.90;99.90
33023;DHT22;19390;51.460;5.710;2022-07-04T06:18:47;24.60;99.90
33023;DHT22;19390;51.460;5.710;2022-07-04T06:21:13;24.60;99.90
33023;DHT22;19390;51.460;5.710;2022-07-04T06:23:39;24.60;99.90
33023;DHT22;19390;51.460;5.710;2022-07-04T06:26:04;25.00;99.90
33023;DHT22;19390;51.460;5.710;2022-07-04T06:28:30;25.60;99.90
33023;DHT22;19390;51.460;5.710;2022-07-04T06:30:56;25.30;99.90
33023;DHT22;19390;51.460;5.710;2022-07-04T06:33:21;25.60;99.90
33023;DHT22;19390;51.460;5.710;2022-07-04T06:35:47;24.80;99.90
33023;DHT22;19390;51.460;5.710;2022-07-04T06:38:31;24.40;99.90
33023;DHT22;19390;51.460;5.710;2022-07-04T06:40:58;26.00;99.90
33023;DHT22;19390;51.460;5.710;2022-07-04T06:43:25;25.10;99.90
33023;DHT22;19390;51.460;5.710;2022-07-04T06:45:51;25.40;99.90
33023;DHT22;19390;51.460;5.710;2022-07-04T06:48:17;26.00;99.90
33023;DHT22;19390;51.460;5.710;2022-07-04T06:50:42;25.20;99.90
33023;DHT22;19390;51.460;5.710;2022-07-04T06:53:09;25.90;99.90
33023;DHT22;19390;51.460;5.710;2022-07-04T06:55:39;26.60;99.90
33023;DHT22;19390;51.460;5.710;2022-07-04T06:58:05;25.90;99.90
33023;DHT22;19390;51.460;5.710;2022-07-04T07:00:32;26.30;99.90
33023;DHT22;19390;51.460;5.710;2022-07-04T07:02:58;27.40;99.90
33023;DHT22;19390;51.460;5.710;2022-07-04T07:05:25;28.00;99.90
33023;DHT22;19390;51.460;5.710;2022-07-04T07:07:51;26.70;99.90
33023;DHT22;19390;51.460;5.710;2022-07-04T07:10:16;26.10;99.90
33023;DHT22;19390;51.460;5.710;2022-07-04T07:12:42;26.00;99.90
33023;DHT22;19390;51.460;5.710;2022-07-04T07:15:08;25.90;99.90
33023;DHT22;19390;51.460;5.710;2022-07-04T07:17:34;27.10;99.90
33023;DHT22;19390;51.460;5.710;2022-07-04T07:19:59;27.10;99.90
33023;DHT22;19390;51.460;5.710;2022-07-04T07:22:25;28.00;99.90
33023;DHT22;19390;51.460;5.710;2022-07-04T07:24:51;29.40;99.90
33023;DHT22;19390;51.460;5.710;2022-07-04T07:27:17;28.10;99.90
33023;DHT22;19390;51.460;5.710;2022-07-04T07:29:42;27.40;99.90
33023;DHT22;19390;51.460;5.710;2022-07-04T07:32:08;26.80;99.90
33023;DHT22;19390;51.460;5.710;2022-07-04T07:34:34;26.30;99.90
33023;DHT22;19390;51.460;5.710;2022-07-04T07:37:00;27.70;99.90
33023;DHT22;19390;51.460;5.710;2022-07-04T07:39:27;27.00;99.90
33023;DHT22;19390;51.460;5.710;2022-07-04T07:41:52;29.00;99.90
33023;DHT22;19390;51.460;5.710;2022-07-04T07:44:18;28.20;99.90
33023;DHT22;19390;51.460;5.710;2022-07-04T07:46:43;26.70;99.90
33023;DHT22;19390;51.460;5.710;2022-07-04T07:49:09;27.90;99.90
33023;DHT22;19390;51.460;5.710;2022-07-04T07:51:35;28.50;99.90
33023;DHT22;19390;51.460;5.710;2022-07-04T07:54:01;26.00;99.90
33023;DHT22;19390;51.460;5.710;2022-07-04T07:56:26;29.10;99.90
33023;DHT22;19390;51.460;5.710;2022-07-04T07:58:52;28.90;99.90
33023;DHT22;19390;51.460;5.710;2022-07-04T08:01:18;27.40;99.90
33023;DHT22;19390;51.460;5.710;2022-07-04T08:03:44;28.80;99.90
33023;DHT22;19390;51.460;5.710;2022-07-04T08:06:28;28.60;99.90
33023;DHT22;19390;51.460;5.710;2022-07-04T08:08:54;29.90;99.90
33023;DHT22;19390;51.460;5.710;2022-07-04T08:11:19;30.60;99.90
33023;DHT22;19390;51.460;5.710;2022-07-04T08:13:45;30.30;99.90
33023;DHT22;19390;51.460;5.710;2022-07-04T08:16:11;30.70;99.90
33023;DHT22;19390;51.460;5.710;2022-07-04T08:18:37;31.40;99.90
33023;DHT22;19390;51.460;5.710;2022-07-04T08:21:03;31.20;99.90
33023;DHT22;19390;51.460;5.710;2022-07-04T08:23:30;27.40;99.90
33023;DHT22;19390;51.460;5.710;2022-07-04T08:25:56;27.20;99.90
33023;DHT22;19390;51.460;5.710;2022-07-04T08:28:22;27.60;99.90
33023;DHT22;19390;51.460;5.710;2022-07-04T08:30:47;28.00;99.90
33023;DHT22;19390;51.460;5.710;2022-07-04T08:33:13;29.70;99.90
33023;DHT22;19390;51.460;5.710;2022-07-04T08:35:38;29.80;99.90
33023;DHT22;19390;51.460;5.710;2022-07-04T08:38:04;30.30;99.90
33023;DHT22;19390;51.460;5.710;2022-07-04T08:40:30;31.50;99.90
33023;DHT22;19390;51.460;5.710;2022-07-04T08:42:57;31.40;99.90
33023;DHT22;19390;51.460;5.710;2022-07-04T08:45:27;30.70;99.90
33023;DHT22;19390;51.460;5.710;2022-07-04T08:48:04;32.00;99.90
33023;DHT22;19390;51.460;5.710;2022-07-04T08:53:02;32.10;99.90
33023;DHT22;19390;51.460;5.710;2022-07-04T08:55:29;31.10;99.90
33023;DHT22;19390;51.460;5.710;2022-07-04T08:58:14;30.90;99.90
33023;DHT22;19390;51.460;5.710;2022-07-04T09:00:53;29.10;99.90
33023;DHT22;19390;51.460;5.710;2022-07-04T09:03:19;31.50;99.90
33023;DHT22;19390;51.460;5.710;2022-07-04T09:05:45;31.60;99.90
33023;DHT22;19390;51.460;5.710;2022-07-04T09:08:11;32.10;99.90
33023;DHT22;19390;51.460;5.710;2022-07-04T09:10:38;31.50;99.90
33023;DHT22;19390;51.460;5.710;2022-07-04T09:13:08;30.70;99.90
33023;DHT22;19390;51.460;5.710;2022-07-04T09:15:34;33.50;99.90
33023;DHT22;19390;51.460;5.710;2022-07-04T09:18:00;31.90;99.90
33023;DHT22;19390;51.460;5.710;2022-07-04T09:20:27;29.90;99.90
33023;DHT22;19390;51.460;5.710;2022-07-04T09:22:54;31.80;99.90
33023;DHT22;19390;51.460;5.710;2022-07-04T09:25:21;34.10;99.90
33023;DHT22;19390;51.460;5.710;2022-07-04T09:27:54;34.30;99.90
33023;DHT22;19390;51.460;5.710;2022-07-04T09:30:23;35.00;98.80
33023;DHT22;19390;51.460;5.710;2022-07-04T09:32:51;34.80;99.20
33023;DHT22;19390;51.460;5.710;2022-07-04T09:35:20;31.90;99.40
33023;DHT22;19390;51.460;5.710;2022-07-04T09:37:51;32.30;99.90
33023;DHT22;19390;51.460;5.710;2022-07-04T09:40:31;33.40;99.90
33023;DHT22;19390;51.460;5.710;2022-07-04T09:42:59;34.40;98.70
33023;DHT22;19390;51.460;5.710;2022-07-04T09:45:25;32.60;99.10
33023;DHT22;19390;51.460;5.710;2022-07-04T09:47:56;31.40;99.90
33023;DHT22;19390;51.460;5.710;2022-07-04T09:50:24;32.10;99.30
33023;DHT22;19390;51.460;5.710;2022-07-04T09:52:57;33.60;99.50
33023;DHT22;19390;51.460;5.710;2022-07-04T09:55:41;33.60;97.90
33023;DHT22;19390;51.460;5.710;2022-07-04T10:00:34;29.40;99.90
33023;DHT22;19390;51.460;5.710;2022-07-04T10:03:26;26.40;99.90
33023;DHT22;19390;51.460;5.710;2022-07-04T10:06:12;29.50;99.90
33023;DHT22;19390;51.460;5.710;2022-07-04T10:08:39;29.60;99.90
33023;DHT22;19390;51.460;5.710;2022-07-04T10:11:05;27.40;99.90
33023;DHT22;19390;51.460;5.710;2022-07-04T10:13:32;29.00;99.90
33023;DHT22;19390;51.460;5.710;2022-07-04T10:15:58;31.20;99.90
33023;DHT22;19390;51.460;5.710;2022-07-04T10:18:24;33.00;98.70
33023;DHT22;19390;51.460;5.710;2022-07-04T10:20:51;31.40;99.50
33023;DHT22;19390;51.460;5.710;2022-07-04T10:23:18;33.30;98.10
33023;DHT22;19390;51.460;5.710;2022-07-04T10:25:52;32.60;97.40
33023;DHT22;19390;51.460;5.710;2022-07-04T10:28:19;33.00;97.80
33023;DHT22;19390;51.460;5.710;2022-07-04T10:30:54;28.70;99.20
33023;DHT22;19390;51.460;5.710;2022-07-04T10:33:24;29.60;99.90
33023;DHT22;19390;51.460;5.710;2022-07-04T10:35:58;31.00;99.80
33023;DHT22;19390;51.460;5.710;2022-07-04T10:38:31;30.80;99.90
33023;DHT22;19390;51.460;5.710;2022-07-04T10:40:58;32.10;98.90
33023;DHT22;19390;51.460;5.710;2022-07-04T10:46:43;28.90;99.80
33023;DHT22;19390;51.460;5.710;2022-07-04T10:54:03;34.10;97.50
33023;DHT22;19390;51.460;5.710;2022-07-04T10:58:55;30.40;97.60
33023;DHT22;19390;51.460;5.710;2022-07-04T11:01:23;28.40;99.00
33023;DHT22;19390;51.460;5.710;2022-07-04T11:03:53;27.70;99.90
33023;DHT22;19390;51.460;5.710;2022-07-04T11:11:58;30.20;99.90
33023;DHT22;19390;51.460;5.710;2022-07-04T11:14:43;29.90;99.50
33023;DHT22;19390;51.460;5.710;2022-07-04T11:17:12;26.80;99.90
33023;DHT22;19390;51.460;5.710;2022-07-04T11:19:39;28.50;99.90
33023;DHT22;19390;51.460;5.710;2022-07-04T11:22:06;30.30;99.50
33023;DHT22;19390;51.460;5.710;2022-07-04T11:24:33;31.70;98.60
33023;DHT22;19390;51.460;5.710;2022-07-04T11:26:59;31.60;97.90
33023;DHT22;19390;51.460;5.710;2022-07-04T11:29:26;31.60;98.80
33023;DHT22;19390;51.460;5.710;2022-07-04T11:31:52;30.80;97.60
33023;DHT22;19390;51.460;5.710;2022-07-04T11:34:18;30.00;98.30
33023;DHT22;19390;51.460;5.710;2022-07-04T11:36:47;31.00;96.90
33023;DHT22;19390;51.460;5.710;2022-07-04T11:39:18;30.00;98.90
33023;DHT22;19390;51.460;5.710;2022-07-04T11:41:52;29.90;98.70
33023;DHT22;19390;51.460;5.710;2022-07-04T11:44:38;29.80;98.60
33023;DHT22;19390;51.460;5.710;2022-07-04T11:50:05;28.70;97.60
33023;DHT22;19390;51.460;5.710;2022-07-04T11:52:40;29.90;97.80
33023;DHT22;19390;51.460;5.710;2022-07-04T11:55:09;29.30;97.60
33023;DHT22;19390;51.460;5.710;2022-07-04T11:57:37;30.00;98.20
33023;DHT22;19390;51.460;5.710;2022-07-04T12:02:37;30.80;96.90
33023;DHT22;19390;51.460;5.710;2022-07-04T12:05:05;28.30;97.50
33023;DHT22;19390;51.460;5.710;2022-07-04T12:07:33;29.20;99.50
33023;DHT22;19390;51.460;5.710;2022-07-04T12:10:13;29.80;98.40
33023;DHT22;19390;51.460;5.710;2022-07-04T12:13:05;30.90;97.20
33023;DHT22;19390;51.460;5.710;2022-07-04T12:15:41;30.90;96.50
33023;DHT22;19390;51.460;5.710;2022-07-04T12:18:22;29.60;98.00
33023;DHT22;19390;51.460;5.710;2022-07-04T12:20:50;29.00;99.50
33023;DHT22;19390;51.460;5.710;2022-07-04T12:23:18;27.70;99.40
33023;DHT22;19390;51.460;5.710;2022-07-04T12:25:46;27.20;99.90
33023;DHT22;19390;51.460;5.710;2022-07-04T12:28:13;28.10;99.50
33023;DHT22;19390;51.460;5.710;2022-07-04T12:30:55;28.10;99.40
33023;DHT22;19390;51.460;5.710;2022-07-04T12:33:23;28.00;99.00
33023;DHT22;19390;51.460;5.710;2022-07-04T12:35:56;28.40;99.90
33023;DHT22;19390;51.460;5.710;2022-07-04T12:38:28;28.40;99.10
33023;DHT22;19390;51.460;5.710;2022-07-04T12:41:00;27.00;99.90
33023;DHT22;19390;51.460;5.710;2022-07-04T12:43:47;26.30;99.90
33023;DHT22;19390;51.460;5.710;2022-07-04T12:48:55;25.50;99.90
33023;DHT22;19390;51.460;5.710;2022-07-04T12:51:32;26.10;99.90
33023;DHT22;19390;51.460;5.710;2022-07-04T12:54:05;25.90;99.90
33023;DHT22;19390;51.460;5.710;2022-07-04T12:56:36;27.40;99.90
33023;DHT22;19390;51.460;5.710;2022-07-04T12:59:05;27.20;99.90
33023;DHT22;19390;51.460;5.710;2022-07-04T13:01:31;26.20;99.90
33023;DHT22;19390;51.460;5.710;2022-07-04T13:03:57;26.80;99.90
33023;DHT22;19390;51.460;5.710;2022-07-04T13:06:23;27.00;99.90
33023;DHT22;19390;51.460;5.710;2022-07-04T13:08:49;27.10;99.90
33023;DHT22;19390;51.460;5.710;2022-07-04T13:11:14;26.70;99.90
33023;DHT22;19390;51.460;5.710;2022-07-04T13:13:58;27.50;99.90
33023;DHT22;19390;51.460;5.710;2022-07-04T13:16:24;28.60;99.90
33023;DHT22;19390;51.460;5.710;2022-07-04T13:18:50;28.60;99.90
33023;DHT22;19390;51.460;5.710;2022-07-04T13:21:15;29.40;99.90
33023;DHT22;19390;51.460;5.710;2022-07-04T13:23:41;28.40;99.90
33023;DHT22;19390;51.460;5.710;2022-07-04T13:26:06;27.90;99.90
33023;DHT22;19390;51.460;5.710;2022-07-04T13:28:32;26.30;99.90
33023;DHT22;19390;51.460;5.710;2022-07-04T13:30:58;27.60;99.90
33023;DHT22;19390;51.460;5.710;2022-07-04T13:33:23;27.50;99.90
33023;DHT22;19390;51.460;5.710;2022-07-04T13:35:49;29.20;99.90
33023;DHT22;19390;51.460;5.710;2022-07-04T13:38:15;28.90;99.90
33023;DHT22;19390;51.460;5.710;2022-07-04T13:40:44;28.90;99.90
33023;DHT22;19390;51.460;5.710;2022-07-04T13:43:10;30.20;99.90
33023;DHT22;19390;51.460;5.710;2022-07-04T13:45:37;28.60;99.90
33023;DHT22;19390;51.460;5.710;2022-07-04T13:48:05;28.60;99.90
33023;DHT22;19390;51.460;5.710;2022-07-04T13:50:31;29.70;99.90
33023;DHT22;19390;51.460;5.710;2022-07-04T13:52:57;29.00;99.90
33023;DHT22;19390;51.460;5.710;2022-07-04T13:55:22;29.80;99.90
33023;DHT22;19390;51.460;5.710;2022-07-04T13:57:48;29.10;99.90
33023;DHT22;19390;51.460;5.710;2022-07-04T14:00:14;29.10;99.90
33023;DHT22;19390;51.460;5.710;2022-07-04T14:02:39;29.20;99.90
33023;DHT22;19390;51.460;5.710;2022-07-04T14:05:05;28.30;99.90
33023;DHT22;19390;51.460;5.710;2022-07-04T14:07:31;28.40;99.90
33023;DHT22;19390;51.460;5.710;2022-07-04T14:09:59;28.40;99.90
33023;DHT22;19390;51.460;5.710;2022-07-04T14:12:24;28.60;99.90
33023;DHT22;19390;51.460;5.710;2022-07-04T14:14:50;28.10;99.90
33023;DHT22;19390;51.460;5.710;2022-07-04T14:17:16;26.20;99.90
33023;DHT22;19390;51.460;5.710;2022-07-04T14:19:41;27.50;99.90
33023;DHT22;19390;51.460;5.710;2022-07-04T14:22:07;27.60;99.90
33023;DHT22;19390;51.460;5.710;2022-07-04T14:24:33;27.30;99.90
33023;DHT22;19390;51.460;5.710;2022-07-04T14:26:58;27.50;99.90
33023;DHT22;19390;51.460;5.710;2022-07-04T14:29:24;27.10;99.90
33023;DHT22;19390;51.460;5.710;2022-07-04T14:31:49;27.80;99.90
33023;DHT22;19390;51.460;5.710;2022-07-04T14:34:17;28.80;99.90
33023;DHT22;19390;51.460;5.710;2022-07-04T14:36:42;29.10;99.90
33023;DHT22;19390;51.460;5.710;2022-07-04T14:39:08;28.60;99.90
33023;DHT22;19390;51.460;5.710;2022-07-04T14:41:34;27.40;99.90
33023;DHT22;19390;51.460;5.710;2022-07-04T14:44:00;27.00;99.90
33023;DHT22;19390;51.460;5.710;2022-07-04T14:46:26;27.40;99.90
33023;DHT22;19390;51.460;5.710;2022-07-04T14:48:52;27.90;99.90
33023;DHT22;19390;51.460;5.710;2022-07-04T14:51:18;27.60;99.90
33023;DHT22;19390;51.460;5.710;2022-07-04T14:53:43;28.80;99.90
33023;DHT22;19390;51.460;5.710;2022-07-04T14:56:09;28.40;99.90
33023;DHT22;19390;51.460;5.710;2022-07-04T14:58:35;28.40;99.90
33023;DHT22;19390;51.460;5.710;2022-07-04T15:01:00;28.60;99.90
33023;DHT22;19390;51.460;5.710;2022-07-04T15:03:26;29.00;99.90
33023;DHT22;19390;51.460;5.710;2022-07-04T15:05:52;28.20;99.90
33023;DHT22;19390;51.460;5.710;2022-07-04T15:08:17;27.70;99.90
33023;DHT22;19390;51.460;5.710;2022-07-04T15:10:43;27.60;99.90
33023;DHT22;19390;51.460;5.710;2022-07-04T15:13:09;28.20;99.90
33023;DHT22;19390;51.460;5.710;2022-07-04T15:15:35;27.50;99.90
33023;DHT22;19390;51.460;5.710;2022-07-04T15:18:01;27.90;99.90
33023;DHT22;19390;51.460;5.710;2022-07-04T15:20:27;27.30;99.90
33023;DHT22;19390;51.460;5.710;2022-07-04T15:23:11;27.80;99.90
33023;DHT22;19390;51.460;5.710;2022-07-04T15:25:55;28.60;99.90
33023;DHT22;19390;51.460;5.710;2022-07-04T15:28:21;28.80;99.90
33023;DHT22;19390;51.460;5.710;2022-07-04T15:30:47;28.50;99.90
33023;DHT22;19390;51.460;5.710;2022-07-04T15:33:12;27.30;99.90
33023;DHT22;19390;51.460;5.710;2022-07-04T15:35:44;27.30;99.90
33023;DHT22;19390;51.460;5.710;2022-07-04T15:38:10;27.90;99.90
33023;DHT22;19390;51.460;5.710;2022-07-04T15:40:36;27.80;99.90
33023;DHT22;19390;51.460;5.710;2022-07-04T15:43:02;27.80;99.90
33023;DHT22;19390;51.460;5.710;2022-07-04T15:45:27;27.60;99.90
33023;DHT22;19390;51.460;5.710;2022-07-04T15:47:53;27.50;99.90
33023;DHT22;19390;51.460;5.710;2022-07-04T15:50:19;27.40;99.90
33023;DHT22;19390;51.460;5.710;2022-07-04T15:52:44;27.70;99.90
33023;DHT22;19390;51.460;5.710;2022-07-04T15:55:10;27.50;99.90
33023;DHT22;19390;51.460;5.710;2022-07-04T15:57:35;27.10;99.90
33023;DHT22;19390;51.460;5.710;2022-07-04T16:00:03;27.00;99.90
33023;DHT22;19390;51.460;5.710;2022-07-04T16:02:30;27.00;99.90